1880 Hurricane NOT_NAMED (1880235N13333)


IBTrACS version v04r00. Visit IBTrACS website for data access.
Please direct all questions to the IBTrACS Q and A forum

Storm track - Intensity - Wind Radii - Intensity Data - Source Data - All data

Summary Information

Storm ID 1880235N13333
Start Aug 22 06Z
Max Intensity 80 kt (Aug 30 12Z), 977 mb (Aug 31 06Z)
End Sep 4 18Z
ATCF IDs ,AL051880
Track status Best track data.

Storm track plot

Map of storm track

Intensity plots

Map of storm track

Radial wind information

No radial wind information for this storm


Position and Intensity Table

BASIN ISO_TIME_________ NATURE LAT LON WMO WIND WMO PRES USA WIND USA PRES MLC WIND MLC PRES
degrees north degrees east kts mb kts mb kts mb
NA 1880-08-22 06:00:00 TS 13.30 -27.50 35
NA 09:00:00 TS 13.56 -28.09 37
NA 12:00:00 TS 13.80 -28.70 40
NA 15:00:00 TS 14.01 -29.34 40
NA 18:00:00 TS 14.20 -30.00 40
NA 21:00:00 TS 14.40 -30.66 45
NA 1880-08-23 00:00:00 TS 14.60 -31.30 50
NA 03:00:00 TS 14.80 -31.92 52
NA 06:00:00 TS 15.00 -32.50 55 996
NA 09:00:00 TS 15.21 -33.02 55
NA 12:00:00 TS 15.40 -33.50 55
NA 15:00:00 TS 15.55 -34.00 55
NA 18:00:00 TS 15.70 -34.50 55
NA 21:00:00 TS 15.90 -35.00 55
NA 1880-08-24 00:00:00 TS 16.10 -35.50 55
NA 03:00:00 TS 16.26 -36.00 55
NA 06:00:00 TS 16.40 -36.50 55
NA 09:00:00 TS 16.56 -37.00 55
NA 12:00:00 TS 16.70 -37.50 55
NA 15:00:00 TS 16.80 -38.00 55
NA 18:00:00 TS 16.90 -38.50 55
NA 21:00:00 TS 17.05 -39.00 55
NA 1880-08-25 00:00:00 TS 17.20 -39.50 55
NA 03:00:00 TS 17.28 -40.00 52
NA 06:00:00 TS 17.40 -40.50 50
NA 09:00:00 TS 17.63 -41.00 50
NA 12:00:00 TS 17.90 -41.50 50
NA 15:00:00 TS 18.10 -42.00 50
NA 18:00:00 TS 18.30 -42.50 50
NA 21:00:00 TS 18.54 -43.00 50
NA 1880-08-26 00:00:00 TS 19.03 -43.17 50 50 50
NA 03:00:00 TS 19.37 -43.57 50 47
NA 06:00:00 TS 19.66 -44.02 50 50 45
NA 09:00:00 TS 19.97 -44.48 50 45
NA 12:00:00 TS 20.27 -45.00 50 50 45
NA 15:00:00 TS 20.56 -45.56 50 42
NA 18:00:00 TS 20.90 -46.17 50 50 40
NA 21:00:00 TS 21.33 -46.81 55 40
NA 1880-08-27 00:00:00 TS 21.80 -47.47 60 60 40
NA 03:00:00 TS 22.22 -48.08 60 37
NA 06:00:00 TS 22.72 -48.90 60 60 35
NA 09:00:00 TS 23.25 -49.88 60 32
NA 12:00:00 TS 23.82 -51.00 60 60 30
NA 15:00:00 TS 24.45 -52.22 60
NA 18:00:00 TS 24.90 -52.90 60 60
NA 21:00:00 TS 25.36 -53.62 60
NA 1880-08-28 00:00:00 TS 26.16 -54.82 60 60
NA 03:00:00 TS 26.81 -55.77 60
NA 06:00:00 TS 27.39 -56.59 60 60
NA 09:00:00 TS 27.96 -57.43 65
NA 12:00:00 TS 28.33 -58.00 70 70
NA 15:00:00 TS 28.64 -58.41 70
NA 18:00:00 TS 28.93 -58.80 70 70
NA 21:00:00 TS 29.26 -59.32 70
NA 1880-08-29 00:00:00 TS 29.60 -59.87 70 70
NA 03:00:00 TS 29.94 -60.37 70
NA 06:00:00 TS 30.27 -60.87 70 70
NA 09:00:00 TS 30.55 -61.36 70
NA 12:00:00 TS 30.83 -61.83 70 70
NA 15:00:00 TS 31.13 -62.30 70
NA 18:00:00 TS 31.43 -62.73 70 70
NA 21:00:00 TS 31.75 -63.14 70
NA 1880-08-30 00:00:00 TS 32.03 -63.53 70 70
NA 03:00:00 TS 32.27 -63.96 70
NA 06:00:00 TS 32.47 -64.30 70 70
NA 09:00:00 TS 32.65 -64.48 75
NA 12:00:00 TS 32.80 -64.57 80 80
NA 15:00:00 TS 32.93 -64.66 80
NA 18:00:00 TS 33.03 -64.70 80 80
NA 21:00:00 TS 33.11 -64.69 80
NA 1880-08-31 00:00:00 TS 33.17 -64.60 80 80
NA 03:00:00 TS 33.20 -64.44 80
NA 06:00:00 TS 33.23 -64.23 80 977 80 977
NA 09:00:00 TS 33.30 -64.05 80
NA 12:00:00 TS 33.40 -63.87 80 80
NA 15:00:00 TS 33.54 -63.66 80
NA 18:00:00 TS 33.70 -63.43 80 80
NA 21:00:00 TS 33.86 -63.16 80
NA 1880-09-01 00:00:00 TS 34.03 -62.90 80 80
NA 03:00:00 TS 34.25 -62.71 80
NA 06:00:00 TS 34.47 -62.53 80 80
NA 09:00:00 TS 34.66 -62.31 75
NA 12:00:00 TS 34.83 -62.10 70 70
NA 15:00:00 TS 35.04 -61.95 70
NA 18:00:00 TS 35.20 -61.80 70 70
NA 21:00:00 TS 35.28 -61.61 70
NA 1880-09-02 00:00:00 TS 35.30 -61.40 70 70
NA 03:00:00 TS 35.29 -61.15 70
NA 06:00:00 TS 35.27 -60.90 70 70
NA 09:00:00 TS 35.26 -60.67 70
NA 12:00:00 TS 35.23 -60.47 70 70
NA 15:00:00 TS 35.19 -60.26 70
NA 18:00:00 TS 35.10 -60.10 70 70
NA 21:00:00 TS 34.95 -60.00 70
NA 1880-09-03 00:00:00 TS 34.80 -59.93 70 70
NA 03:00:00 TS 34.68 -59.87 70
NA 06:00:00 TS 34.60 -59.83 70 70
NA 09:00:00 TS 34.54 -59.86 65
NA 12:00:00 TS 34.57 -59.87 60 60
NA 15:00:00 TS 34.74 -59.77 60
NA 18:00:00 TS 35.00 -59.60 60 60
NA 21:00:00 TS 35.27 -59.40 60
NA 1880-09-04 00:00:00 TS 35.60 -59.13 60 60
NA 03:00:00 TS 35.99 -58.80 60
NA 06:00:00 TS 36.43 -58.43 60 60
NA 09:00:00 TS 36.87 -58.07 60
NA 12:00:00 TS 37.33 -57.70 60 60
NA 15:00:00 TS 37.81 -57.32 60
NA 18:00:00 TS 38.30 -56.93 60 60

Source Information

Agency Information
USA hurdat2-1851-2019-042820.txt:Line=4100:UNNAMED
TOKYO
CMA
HKO
NEWDELHI
REUNION
BOM
NADI
WELLINGTON
DS824
TD9636
TD9635
NEUMANN
MLC

All available IBTrACS Data

SEASON BASIN SUBBASIN ISO_TIME_________ NATURE LAT LON WMO WIND WMO PRES WMO AGENCY DIST2LAND LANDFALL IFLAG USA AGENCY USA ATCF_ID USA LAT USA LON USA STATUS USA WIND USA PRES USA SSHS MLC LAT MLC LON MLC CLASS MLC WIND MLC PRES STORM SPEED STORM DIR
Year degrees north degrees east kts mb km km degrees north degrees east kts mb 1 degrees north degrees east kts mb kts degrees
1880 NA NA 1880-08-22 06:00:00 TS 13.30 -27.50 1090 1090 _____________O -1 13.30 -27.50 TS 35 13 294
1880 NA NA 09:00:00 TS 13.56 -28.09 1149 1149 _____________P -1 13.56 -28.09 TS 37 13 293
1880 NA NA 12:00:00 TS 13.80 -28.70 1211 1211 _____________O -1 13.80 -28.70 TS 40 13 290
1880 NA NA 15:00:00 TS 14.01 -29.34 1274 1274 _____________P -1 14.01 -29.34 TS 40 13 288
1880 NA NA 18:00:00 TS 14.20 -30.00 1347 1347 _____________O -1 14.20 -30.00 TS 40 13 287
1880 NA NA 21:00:00 TS 14.40 -30.66 1421 1421 _____________P -1 14.40 -30.66 TS 45 13 288
1880 NA NA 1880-08-23 00:00:00 TS 14.60 -31.30 1485 1485 _____________O -1 14.60 -31.30 TS 50 13 288
1880 NA NA 03:00:00 TS 14.80 -31.92 1548 1548 _____________P -1 14.80 -31.92 TS 52 12 289
1880 NA NA 06:00:00 TS 15.00 -32.50 1612 1612 _____________O -1 15.00 -32.50 TS 55 996 11 291
1880 NA NA 09:00:00 TS 15.21 -33.02 1666 1666 _____________P -1 15.21 -33.02 TS 55 10 293
1880 NA NA 12:00:00 TS 15.40 -33.50 1720 1720 _____________O -1 15.40 -33.50 TS 55 10 290
1880 NA NA 15:00:00 TS 15.55 -34.00 1773 1773 _____________P -1 15.55 -34.00 TS 55 10 287
1880 NA NA 18:00:00 TS 15.70 -34.50 1827 1827 _____________O -1 15.70 -34.50 TS 55 10 290
1880 NA NA 21:00:00 TS 15.90 -35.00 1881 1881 _____________P -1 15.90 -35.00 TS 55 10 293
1880 NA NA 1880-08-24 00:00:00 TS 16.10 -35.50 1936 1936 _____________O -1 16.10 -35.50 TS 55 10 290
1880 NA NA 03:00:00 TS 16.26 -36.00 1990 1990 _____________P -1 16.26 -36.00 TS 55 10 287
1880 NA NA 06:00:00 TS 16.40 -36.50 2044 2044 _____________O -1 16.40 -36.50 TS 55 10 287
1880 NA NA 09:00:00 TS 16.56 -37.00 2082 2048 _____________P -1 16.56 -37.00 TS 55 10 287
1880 NA NA 12:00:00 TS 16.70 -37.50 2048 2016 _____________O -1 16.70 -37.50 TS 55 10 284
1880 NA NA 15:00:00 TS 16.80 -38.00 2016 1985 _____________P -1 16.80 -38.00 TS 55 10 282
1880 NA NA 18:00:00 TS 16.90 -38.50 1985 1955 _____________O -1 16.90 -38.50 TS 55 10 285
1880 NA NA 21:00:00 TS 17.05 -39.00 1955 1934 _____________P -1 17.05 -39.00 TS 55 10 287
1880 NA NA 1880-08-25 00:00:00 TS 17.20 -39.50 1934 1907 _____________O -1 17.20 -39.50 TS 55 10 284
1880 NA NA 03:00:00 TS 17.28 -40.00 1907 1881 _____________P -1 17.28 -40.00 TS 52 10 282
1880 NA NA 06:00:00 TS 17.40 -40.50 1881 1864 _____________O -1 17.40 -40.50 TS 50 10 290
1880 NA NA 09:00:00 TS 17.63 -41.00 1864 1857 _____________P -1 17.63 -41.00 TS 50 11 298
1880 NA NA 12:00:00 TS 17.90 -41.50 1859 1844 _____________O -1 17.90 -41.50 TS 50 11 296
1880 NA NA 15:00:00 TS 18.10 -42.00 1847 1829 _____________P -1 18.10 -42.00 TS 50 10 293
1880 NA NA 18:00:00 TS 18.30 -42.50 1832 1815 _____________O -1 18.30 -42.50 TS 50 10 295
1880 NA NA 21:00:00 TS 18.54 -43.00 1818 1818 _____________P -1 18.54 -43.00 TS 50 10 319
1880 NA NA 1880-08-26 00:00:00 TS 19.03 -43.17 50 hurdat_atl 1851 1851 O____________O hurdat_atl AL051880 19.50 -42.50 TS 50 0 18.80 -43.50 TS 50 10 327
1880 NA NA 03:00:00 TS 19.37 -43.57 1865 1859 P____________P AL051880 19.68 -43.09 TS 50 0 19.05 -44.04 TS 47 10 308
1880 NA NA 06:00:00 TS 19.66 -44.02 50 hurdat_atl 1871 1865 O____________O hurdat_atl AL051880 19.90 -43.70 TS 50 0 19.30 -44.50 TS 45 11 305
1880 NA NA 09:00:00 TS 19.97 -44.48 1874 1869 P____________P AL051880 20.18 -44.33 TS 50 0 19.55 -44.79 TS 45 11 303
1880 NA NA 12:00:00 TS 20.27 -45.00 50 hurdat_atl 1879 1869 O____________O hurdat_atl AL051880 20.50 -45.00 TS 50 0 19.80 -45.00 TS 45 12 300
1880 NA NA 15:00:00 TS 20.56 -45.56 1881 1876 P____________P AL051880 20.82 -45.72 TS 50 0 20.03 -45.25 TS 42 13 300
1880 NA NA 18:00:00 TS 20.90 -46.17 50 hurdat_atl 1886 1886 O____________O hurdat_atl AL051880 21.20 -46.50 TS 50 0 20.30 -45.50 TS 40 14 304
1880 NA NA 21:00:00 TS 21.33 -46.81 1899 1899 P____________P AL051880 21.68 -47.34 TS 55 0 20.63 -45.75 TS 40 15 307
1880 NA NA 1880-08-27 00:00:00 TS 21.80 -47.47 60 hurdat_atl 1900 1880 O____________O hurdat_atl AL051880 22.20 -48.20 TS 60 0 21.00 -46.00 TS 40 15 307
1880 NA NA 03:00:00 TS 22.22 -48.08 1872 1812 P____________P AL051880 22.66 -49.00 TS 60 0 21.35 -46.25 TS 37 16 305
1880 NA NA 06:00:00 TS 22.72 -48.90 60 hurdat_atl 1802 1726 O____________O hurdat_atl AL051880 23.10 -49.80 TS 60 0 21.70 -46.50 TS 35 20 302
1880 NA NA 09:00:00 TS 23.25 -49.88 1719 1638 P____________P AL051880 23.55 -50.67 TS 60 0 22.05 -46.75 TS 32 22 300
1880 NA NA 12:00:00 TS 23.82 -51.00 60 hurdat_atl 1628 1539 O____________O hurdat_atl AL051880 24.00 -51.50 TS 60 0 22.40 -47.00 TD 30 25 299
1880 NA NA 15:00:00 TS 24.45 -52.22 1539 1498 P_____________ AL051880 24.45 -52.22 TS 60 0 TD 20 302
1880 NA NA 18:00:00 TS 24.90 -52.90 60 hurdat_atl 1498 1457 O_____________ hurdat_atl AL051880 24.90 -52.90 TS 60 0 16 306
1880 NA NA 21:00:00 TS 25.36 -53.62 1463 1404 P_____________ AL051880 25.36 -53.62 TS 60 0 21 306
1880 NA NA 1880-08-28 00:00:00 TS 26.16 -54.82 60 hurdat_atl 1410 1374 O_____________ hurdat_atl AL051880 25.80 -54.30 TS 60 0 24 307
1880 NA NA 03:00:00 TS 26.81 -55.77 1374 1361 P_____________ AL051880 26.20 -54.89 TS 60 0 20 308
1880 NA NA 06:00:00 TS 27.39 -56.59 60 hurdat_atl 1363 1349 O_____________ hurdat_atl AL051880 26.60 -55.50 TS 60 0 19 308
1880 NA NA 09:00:00 TS 27.96 -57.43 1360 1347 P_____________ AL051880 27.06 -56.27 TS 65 1 16 307
1880 NA NA 12:00:00 TS 28.33 -58.00 70 hurdat_atl 1350 1347 O_____________ hurdat_atl AL051880 27.50 -57.00 HU 70 1 11 308
1880 NA NA 15:00:00 TS 28.64 -58.41 1354 1354 P_____________ AL051880 27.86 -57.47 HU 70 1 9 311
1880 NA NA 18:00:00 TS 28.93 -58.80 70 hurdat_atl 1361 1361 O_____________ hurdat_atl AL051880 28.20 -57.90 HU 70 1 10 308
1880 NA NA 21:00:00 TS 29.26 -59.32 1375 1370 P_____________ AL051880 28.59 -58.53 HU 70 1 11 306
1880 NA NA 1880-08-29 00:00:00 TS 29.60 -59.87 70 hurdat_atl 1378 1378 O_____________ hurdat_atl AL051880 29.00 -59.20 HU 70 1 11 306
1880 NA NA 03:00:00 TS 29.94 -60.37 1388 1388 P_____________ AL051880 29.41 -59.81 HU 70 1 11 308
1880 NA NA 06:00:00 TS 30.27 -60.87 70 hurdat_atl 1411 1408 O_____________ hurdat_atl AL051880 29.80 -60.40 HU 70 1 10 306
1880 NA NA 09:00:00 TS 30.55 -61.36 1427 1385 P_____________ AL051880 30.16 -61.02 HU 70 1 10 304
1880 NA NA 12:00:00 TS 30.83 -61.83 70 hurdat_atl 1385 1328 O_____________ hurdat_atl AL051880 30.50 -61.60 HU 70 1 10 306
1880 NA NA 15:00:00 TS 31.13 -62.30 1328 1279 P_____________ AL051880 30.85 -62.12 HU 70 1 10 308
1880 NA NA 18:00:00 TS 31.43 -62.73 70 hurdat_atl 1279 1230 O_____________ hurdat_atl AL051880 31.20 -62.60 HU 70 1 10 310
1880 NA NA 21:00:00 TS 31.75 -63.14 1230 1182 P_____________ AL051880 31.56 -63.08 HU 70 1 9 311
1880 NA NA 1880-08-30 00:00:00 TS 32.03 -63.53 70 hurdat_atl 1182 1134 O_____________ hurdat_atl AL051880 31.90 -63.50 HU 70 1 9 307
1880 NA NA 03:00:00 TS 32.27 -63.96 1126 1091 P_____________ AL051880 32.21 -63.85 HU 70 1 8 304
1880 NA NA 06:00:00 TS 32.47 -64.30 70 hurdat_atl 1091 1069 O_____________ hurdat_atl AL051880 32.50 -64.10 HU 70 1 6 311
1880 NA NA 09:00:00 TS 32.65 -64.48 1069 1052 P_____________ AL051880 32.77 -64.29 HU 75 1 4 326
1880 NA NA 12:00:00 TS 32.80 -64.57 80 hurdat_atl 1052 1040 O_____________ hurdat_atl AL051880 33.00 -64.40 HU 80 1 3 332
1880 NA NA 15:00:00 TS 32.93 -64.66 1040 1036 P_____________ AL051880 33.17 -64.49 HU 80 1 3 334
1880 NA NA 18:00:00 TS 33.03 -64.70 80 hurdat_atl 1036 1032 O_____________ hurdat_atl AL051880 33.30 -64.50 HU 80 1 2 356
1880 NA NA 21:00:00 TS 33.11 -64.69 1032 1032 P_____________ AL051880 33.42 -64.43 HU 80 1 2 30
1880 NA NA 1880-08-31 00:00:00 TS 33.17 -64.60 80 hurdat_atl 1037 1037 O_____________ hurdat_atl AL051880 33.50 -64.30 HU 80 1 2 68
1880 NA NA 03:00:00 TS 33.20 -64.44 1054 1054 P_____________ AL051880 33.50 -64.16 HU 80 1 3 78
1880 NA NA 06:00:00 TS 33.23 -64.23 80 977 hurdat_atl 1072 1064 O_____________ hurdat_atl AL051880 33.50 -64.00 HU 80 977 1 3 72
1880 NA NA 09:00:00 TS 33.30 -64.05 1069 1067 P_____________ AL051880 33.58 -63.85 HU 80 1 3 62
1880 NA NA 12:00:00 TS 33.40 -63.87 80 hurdat_atl 1067 1062 O_____________ hurdat_atl AL051880 33.70 -63.70 HU 80 1 4 54
1880 NA NA 15:00:00 TS 33.54 -63.66 1067 1057 P_____________ AL051880 33.79 -63.56 HU 80 1 5 50
1880 NA NA 18:00:00 TS 33.70 -63.43 80 hurdat_atl 1061 1057 O_____________ hurdat_atl AL051880 33.90 -63.40 HU 80 1 5 53
1880 NA NA 21:00:00 TS 33.86 -63.16 1052 1052 P_____________ AL051880 34.05 -63.16 HU 80 1 6 53
1880 NA NA 1880-09-01 00:00:00 TS 34.03 -62.90 80 hurdat_atl 1058 1045 O_____________ hurdat_atl AL051880 34.20 -62.90 HU 80 1 5 44
1880 NA NA 03:00:00 TS 34.25 -62.71 1050 1030 P_____________ AL051880 34.31 -62.70 HU 80 1 5 35
1880 NA NA 06:00:00 TS 34.47 -62.53 80 hurdat_atl 1030 1021 O_____________ hurdat_atl AL051880 34.40 -62.50 HU 80 1 5 39
1880 NA NA 09:00:00 TS 34.66 -62.31 1012 1004 P_____________ AL051880 34.47 -62.24 HU 75 1 5 44
1880 NA NA 12:00:00 TS 34.83 -62.10 70 hurdat_atl 1006 987 O_____________ hurdat_atl AL051880 34.50 -62.00 HU 70 1 5 38
1880 NA NA 15:00:00 TS 35.04 -61.95 989 968 P_____________ AL051880 34.51 -61.83 HU 70 1 4 34
1880 NA NA 18:00:00 TS 35.20 -61.80 70 hurdat_atl 971 963 O_____________ hurdat_atl AL051880 34.50 -61.70 HU 70 1 4 48
1880 NA NA 21:00:00 TS 35.28 -61.61 965 965 P_____________ AL051880 34.50 -61.55 HU 70 1 3 73
1880 NA NA 1880-09-02 00:00:00 TS 35.30 -61.40 70 hurdat_atl 971 971 O_____________ hurdat_atl AL051880 34.50 -61.40 HU 70 1 4 88
1880 NA NA 03:00:00 TS 35.29 -61.15 977 977 P_____________ AL051880 34.50 -61.26 HU 70 1 4 95
1880 NA NA 06:00:00 TS 35.27 -60.90 70 hurdat_atl 987 987 O_____________ hurdat_atl AL051880 34.50 -61.10 HU 70 1 4 95
1880 NA NA 09:00:00 TS 35.26 -60.67 993 993 P_____________ AL051880 34.50 -60.90 HU 70 1 4 95
1880 NA NA 12:00:00 TS 35.23 -60.47 70 hurdat_atl 1010 1010 O_____________ hurdat_atl AL051880 34.50 -60.70 HU 70 1 3 102
1880 NA NA 15:00:00 TS 35.19 -60.26 1017 1017 P_____________ AL051880 34.51 -60.54 HU 70 1 3 114
1880 NA NA 18:00:00 TS 35.10 -60.10 70 hurdat_atl 1035 1035 O_____________ hurdat_atl AL051880 34.50 -60.40 HU 70 1 3 137
1880 NA NA 21:00:00 TS 34.95 -60.00 1049 1049 P_____________ AL051880 34.45 -60.25 HU 70 1 3 156
1880 NA NA 1880-09-03 00:00:00 TS 34.80 -59.93 70 hurdat_atl 1073 1073 O_____________ hurdat_atl AL051880 34.40 -60.10 HU 70 1 3 160
1880 NA NA 03:00:00 TS 34.68 -59.87 1083 1083 P_____________ AL051880 34.38 -59.95 HU 70 1 2 157
1880 NA NA 06:00:00 TS 34.60 -59.83 70 hurdat_atl 1097 1097 O_____________ hurdat_atl AL051880 34.40 -59.80 HU 70 1 1 0
1880 NA NA 09:00:00 TS 34.54 -59.86 1104 1093 P_____________ AL051880 34.42 -59.67 HU 65 1 0 213
1880 NA NA 12:00:00 TS 34.57 -59.87 60 hurdat_atl 1093 1087 O_____________ hurdat_atl AL051880 34.50 -59.50 TS 60 0 2 23
1880 NA NA 15:00:00 TS 34.74 -59.77 1087 1064 P_____________ AL051880 34.67 -59.22 TS 60 0 5 27
1880 NA NA 18:00:00 TS 35.00 -59.60 60 hurdat_atl 1064 1042 O_____________ hurdat_atl AL051880 34.90 -58.90 TS 60 0 6 30
1880 NA NA 21:00:00 TS 35.27 -59.40 1042 1021 P_____________ AL051880 35.13 -58.59 TS 60 0 7 32
1880 NA NA 1880-09-04 00:00:00 TS 35.60 -59.13 60 hurdat_atl 1025 1001 O_____________ hurdat_atl AL051880 35.40 -58.30 TS 60 0 9 34
1880 NA NA 03:00:00 TS 35.99 -58.80 1001 978 P_____________ AL051880 35.68 -58.04 TS 60 0 10 34
1880 NA NA 06:00:00 TS 36.43 -58.43 60 hurdat_atl 983 957 O_____________ hurdat_atl AL051880 36.00 -57.80 TS 60 0 11 34
1880 NA NA 09:00:00 TS 36.87 -58.07 952 920 P_____________ AL051880 36.33 -57.55 TS 60 0 11 33
1880 NA NA 12:00:00 TS 37.33 -57.70 60 hurdat_atl 923 878 O_____________ hurdat_atl AL051880 36.70 -57.30 TS 60 0 11 32
1880 NA NA 15:00:00 TS 37.81 -57.32 881 838 P_____________ AL051880 37.09 -57.05 TS 60 0 11 32
1880 NA NA 18:00:00 TS 38.30 -56.93 60 hurdat_atl 842 O_____________ hurdat_atl AL051880 37.50 -56.80 TS 60 0 12 32